Time;durP1;ratioP1;P1;durP2;ratioP2;P2;SDS_P1;SDS_P2;PMS_P1;PMS_P2;Temp;Humidity;BMP_temperature;BMP_pressure;BME280_temperature;BME280_humidity;BME280_pressure;Samples;Min_cycle;Max_cycle;Signal;HPM_P1;HPM_P2
2021/11/03 00:00:15;;;;;;;63.93;34.20;;;;;;;8.05;100.00;94564.22;5156240;27;20442;-87
2021/11/03 00:02:42;;;;;;;65.70;35.20;;;;;;;7.89;100.00;94579.47;5156095;27;21002;-87
2021/11/03 00:05:11;;;;;;;75.83;41.17;;;;;;;8.01;100.00;94578.47;5156076;27;20481;-87
2021/11/03 00:07:38;;;;;;;74.47;38.90;;;;;;;7.99;100.00;94559.47;5156074;27;20429;-87
2021/11/03 00:10:07;;;;;;;66.80;33.20;;;;;;;7.98;100.00;94568.28;5156099;27;20454;-87
2021/11/03 00:12:37;;;;;;;67.53;33.47;;;;;;;7.98;100.00;94552.59;5155761;27;20456;-87
2021/11/03 00:15:05;;;;;;;58.03;30.20;;;;;;;8.03;100.00;94558.28;5155970;27;20941;-87
2021/11/03 00:17:32;;;;;;;55.43;28.83;;;;;;;8.07;100.00;94571.91;5156225;27;20538;-87
2021/11/03 00:19:59;;;;;;;50.73;29.80;;;;;;;8.08;100.00;94579.63;5156107;27;20450;-87
2021/11/03 00:22:26;;;;;;;49.60;26.17;;;;;;;8.15;100.00;94577.38;5156517;27;20456;-87
2021/11/03 00:24:53;;;;;;;42.63;24.83;;;;;;;8.15;100.00;94574.78;5156135;27;20837;-87
2021/11/03 00:27:20;;;;;;;42.70;24.87;;;;;;;8.15;100.00;94579.16;5159010;27;20437;-87
2021/11/03 00:29:48;;;;;;;39.60;23.73;;;;;;;8.20;100.00;94598.75;5160268;27;20438;-87
2021/11/03 00:32:15;;;;;;;35.30;21.30;;;;;;;8.10;100.00;94582.16;5159743;27;20516;-86
2021/11/03 00:34:42;;;;;;;33.83;20.23;;;;;;;8.13;100.00;94597.59;5159688;27;20978;-87
2021/11/03 00:37:10;;;;;;;36.07;20.97;;;;;;;8.13;100.00;94594.16;5160127;27;20437;-87
2021/11/03 00:39:37;;;;;;;26.80;18.00;;;;;;;8.14;100.00;94588.78;5159862;27;20437;-87
2021/11/03 00:42:05;;;;;;;33.20;18.80;;;;;;;8.08;100.00;94607.56;5159590;27;20552;-87
2021/11/03 00:44:32;;;;;;;23.90;17.27;;;;;;;8.08;100.00;94584.03;5159548;27;20454;-87
2021/11/03 00:47:01;;;;;;;30.20;17.70;;;;;;;7.74;100.00;94609.38;5159186;27;20442;-84
2021/11/03 00:49:28;;;;;;;31.37;19.70;;;;;;;7.79;100.00;94607.25;5159971;27;20841;-85
2021/11/03 00:51:55;;;;;;;34.37;20.37;;;;;;;7.74;100.00;94610.22;5159615;27;20944;-87
2021/11/03 00:54:22;;;;;;;35.67;21.13;;;;;;;7.84;100.00;94618.19;5159437;27;20785;-87
2021/11/03 00:56:50;;;;;;;27.93;18.80;;;;;;;7.78;100.00;94602.97;5159179;27;20434;-87
2021/11/03 00:59:17;;;;;;;35.10;19.73;;;;;;;7.78;100.00;94613.41;5159433;27;20859;-87
2021/11/03 01:01:44;;;;;;;35.17;21.00;;;;;;;7.83;100.00;94608.69;5159592;27;20460;-87
2021/11/03 01:04:13;;;;;;;35.67;21.30;;;;;;;7.84;100.00;94604.28;5159411;27;20524;-87
2021/11/03 01:06:40;;;;;;;39.03;21.07;;;;;;;7.85;100.00;94621.63;5106037;27;20921;-87
2021/11/03 01:09:08;;;;;;;34.93;19.97;;;;;;;7.83;100.00;94611.28;5159234;27;21016;-87
2021/11/03 01:11:35;;;;;;;34.53;22.23;;;;;;;7.81;100.00;94617.59;5159155;27;20450;-87
2021/11/03 01:14:04;;;;;;;49.00;29.60;;;;;;;7.79;100.00;94612.47;5159552;27;20806;-87
2021/11/03 01:16:31;;;;;;;50.50;29.70;;;;;;;7.73;100.00;94620.78;5158980;27;20955;-85
2021/11/03 01:18:58;;;;;;;48.23;30.27;;;;;;;7.71;100.00;94617.47;5159116;27;20475;-87
2021/11/03 01:21:26;;;;;;;54.33;29.77;;;;;;;7.67;100.00;94626.50;5159051;27;20523;-87
2021/11/03 01:23:53;;;;;;;37.93;24.60;;;;;;;7.67;100.00;94616.88;5159305;27;20460;-86
2021/11/03 01:26:21;;;;;;;40.63;24.67;;;;;;;7.67;100.00;94629.09;5159050;27;20564;-87
2021/11/03 01:28:48;;;;;;;38.93;24.80;;;;;;;7.68;100.00;94622.94;5158725;27;20951;-87
2021/11/03 01:31:15;;;;;;;38.50;25.33;;;;;;;7.68;100.00;94628.16;5159137;27;20449;-87
2021/11/03 01:33:43;;;;;;;51.17;30.57;;;;;;;7.68;100.00;94633.38;5159524;27;20437;-87
2021/11/03 01:36:10;;;;;;;49.23;29.10;;;;;;;7.66;100.00;94630.06;5159644;27;20437;-87
2021/11/03 01:38:39;;;;;;;56.20;31.10;;;;;;;7.60;100.00;94636.59;5158854;27;20520;-87
2021/11/03 01:41:06;;;;;;;75.03;29.80;;;;;;;7.54;100.00;94651.91;5157999;27;20920;-86
2021/11/03 01:43:37;;;;;;;59.33;32.17;;;;;;;7.43;100.00;94652.69;5157890;27;20452;-87
2021/11/03 01:46:32;;;;;;;62.40;30.20;;;;;;;7.29;100.00;94658.97;5158151;27;20457;-87
2021/11/03 01:49:01;;;;;;;52.93;32.60;;;;;;;7.22;100.00;94662.16;5074630;28;20556;-87
2021/11/03 01:51:34;;;;;;;74.87;40.03;;;;;;;7.02;100.00;94674.94;5074480;28;20891;-87
2021/11/03 01:54:04;;;;;;;68.40;37.87;;;;;;;7.00;100.00;94682.03;5074697;28;20449;-87
2021/11/03 01:56:33;;;;;;;63.47;36.77;;;;;;;7.03;100.00;94670.53;5074546;28;20571;-87
2021/11/03 01:59:06;;;;;;;77.83;35.40;;;;;;;7.05;100.00;94653.81;5074850;28;21003;-86
2021/11/03 02:01:34;;;;;;;70.47;37.33;;;;;;;7.00;100.00;94666.38;5075262;28;20548;-87
2021/11/03 02:04:01;;;;;;;65.07;35.50;;;;;;;7.00;100.00;94668.16;5074928;28;20441;-87
2021/11/03 02:06:28;;;;;;;76.33;30.80;;;;;;;6.50;100.00;94677.91;5073927;28;20484;-88
2021/11/03 02:08:57;;;;;;;59.03;31.67;;;;;;;6.70;100.00;94679.06;5073828;28;20533;-87
2021/11/03 02:11:27;;;;;;;58.77;33.00;;;;;;;6.70;100.00;94676.47;5073609;28;20526;-87
2021/11/03 02:13:56;;;;;;;56.47;32.50;;;;;;;6.78;100.00;94692.38;5073190;28;20970;-87
2021/11/03 02:16:24;;;;;;;57.60;32.50;;;;;;;6.84;100.00;94692.75;5074140;28;20463;-87
2021/11/03 02:18:51;;;;;;;65.50;33.60;;;;;;;6.95;100.00;94686.78;5073771;28;20453;-87
2021/11/03 02:21:23;;;;;;;80.87;34.10;;;;;;;6.99;100.00;94682.16;5074174;28;20476;-87
2021/11/03 02:23:58;;;;;;;55.60;33.20;;;;;;;7.04;100.00;94700.91;5084512;27;20441;-87
2021/11/03 02:26:29;;;;;;;49.87;29.67;;;;;;;7.10;100.00;94706.50;5157649;27;20556;-87
2021/11/03 02:28:57;;;;;;;58.33;29.83;;;;;;;7.19;100.00;94704.13;5157901;27;20984;-87
2021/11/03 02:31:36;;;;;;;62.80;29.83;;;;;;;7.29;100.00;94707.75;5157919;27;20806;-87
2021/11/03 02:34:05;;;;;;;93.13;28.67;;;;;;;7.19;100.00;94710.19;5157513;27;20426;-87
2021/11/03 02:36:32;;;;;;;144.80;28.00;;;;;;;7.18;100.00;94726.78;5157976;27;20450;-87
2021/11/03 02:39:02;;;;;;;90.43;23.50;;;;;;;7.24;100.00;94721.13;5157500;27;20452;-87
2021/11/03 02:41:36;;;;;;;91.07;26.83;;;;;;;7.29;100.00;94718.19;5157524;27;20861;-87
2021/11/03 02:44:08;;;;;;;185.43;29.83;;;;;;;7.34;100.00;94711.66;5157503;27;20949;-87
2021/11/03 02:46:35;;;;;;;117.67;27.07;;;;;;;7.28;100.00;94711.28;5157434;27;20480;-87
2021/11/03 02:49:02;;;;;;;105.77;26.67;;;;;;;7.29;100.00;94703.34;5157275;27;20468;-87
2021/11/03 02:51:34;;;;;;;164.93;30.57;;;;;;;7.15;100.00;94712.19;5157273;27;20505;-88
2021/11/03 02:54:05;;;;;;;116.10;30.13;;;;;;;7.20;100.00;94717.06;5157454;27;20438;-87
2021/11/03 02:56:36;;;;;;;129.40;35.10;;;;;;;7.24;100.00;94713.31;5157304;27;20442;-87
2021/11/03 02:59:05;;;;;;;124.10;32.60;;;;;;;7.19;100.00;94712.78;5156877;27;20453;-87
2021/11/03 03:01:35;;;;;;;205.13;30.10;;;;;;;7.16;100.00;94710.41;5157327;27;20512;-87
2021/11/03 03:04:07;;;;;;;172.77;29.23;;;;;;;7.22;100.00;94719.56;5104592;27;20513;-87
2021/11/03 03:06:34;;;;;;;56.37;22.07;;;;;;;7.25;100.00;94714.97;5157247;27;20473;-88
2021/11/03 03:09:04;;;;;;;40.57;21.80;;;;;;;7.28;100.00;94725.19;5157204;27;20545;-87
2021/11/03 03:11:36;;;;;;;52.53;22.33;;;;;;;7.33;100.00;94741.31;5156989;27;20494;-87
2021/11/03 03:14:04;;;;;;;157.80;30.97;;;;;;;7.30;100.00;94744.16;5156733;27;20514;-86
2021/11/03 03:16:31;;;;;;;89.27;24.23;;;;;;;7.28;100.00;94740.84;5156752;27;20442;-87
2021/11/03 03:18:59;;;;;;;43.47;22.50;;;;;;;7.28;100.00;94730.41;5156775;27;20541;-87
2021/11/03 03:21:26;;;;;;;99.40;24.73;;;;;;;7.36;100.00;94738.47;5156713;27;20502;-87
2021/11/03 03:23:53;;;;;;;71.67;23.23;;;;;;;7.38;100.00;94740.97;5156730;27;20465;-87
2021/11/03 03:26:22;;;;;;;33.90;18.67;;;;;;;7.36;100.00;94741.09;5156569;27;20485;-87
2021/11/03 03:28:52;;;;;;;42.83;19.97;;;;;;;7.25;100.00;94729.78;5156499;27;20442;-87
2021/11/03 03:31:20;;;;;;;64.47;22.70;;;;;;;7.07;100.00;94730.19;5156556;27;20513;-87
2021/11/03 03:33:49;;;;;;;61.77;21.43;;;;;;;7.12;100.00;94735.06;5156797;27;20521;-87
2021/11/03 03:36:17;;;;;;;70.23;20.63;;;;;;;7.11;100.00;94733.41;5156751;27;20441;-87
2021/11/03 03:38:45;;;;;;;52.60;19.97;;;;;;;7.17;100.00;94746.00;5156327;27;20442;-87
2021/11/03 03:41:13;;;;;;;40.93;20.03;;;;;;;7.21;100.00;94739.59;5156125;27;20854;-87
2021/11/03 03:43:40;;;;;;;42.87;20.40;;;;;;;7.27;100.00;94748.78;5156537;27;20505;-87
2021/11/03 03:46:10;;;;;;;36.87;20.03;;;;;;;7.30;100.00;94753.78;5156125;27;20477;-87
2021/11/03 03:48:37;;;;;;;41.33;21.40;;;;;;;7.34;100.00;94756.03;5156572;27;20854;-87
2021/11/03 03:51:05;;;;;;;65.53;21.80;;;;;;;7.09;100.00;94757.00;5156280;27;20456;-87
2021/11/03 03:53:32;;;;;;;75.40;22.37;;;;;;;7.09;100.00;94769.22;5156050;27;20520;-87
2021/11/03 03:55:59;;;;;;;69.17;25.70;;;;;;;7.02;100.00;94765.41;5156036;27;20468;-87
2021/11/03 03:58:26;;;;;;;58.40;24.00;;;;;;;6.93;100.00;94771.25;5156037;27;20445;-87
2021/11/03 04:00:53;;;;;;;42.43;25.70;;;;;;;6.92;100.00;94764.38;5155736;27;20508;-87
2021/11/03 04:03:22;;;;;;;54.57;24.33;;;;;;;6.94;100.00;94771.19;5156137;27;20431;-87
2021/11/03 04:05:50;;;;;;;38.47;22.67;;;;;;;6.75;100.00;94782.09;5155812;27;20421;-87
2021/11/03 04:08:19;;;;;;;99.27;25.80;;;;;;;6.78;100.00;94781.03;5156032;27;20532;-87
2021/11/03 04:10:47;;;;;;;71.87;25.97;;;;;;;6.83;100.00;94781.53;5156292;27;20833;-87
2021/11/03 04:13:15;;;;;;;57.73;22.97;;;;;;;6.61;100.00;94779.63;5155728;27;20490;-87
2021/11/03 04:15:43;;;;;;;56.17;25.10;;;;;;;6.49;100.00;94776.13;5156307;27;20528;-87
2021/11/03 04:18:10;;;;;;;67.00;24.60;;;;;;;6.55;100.00;94782.66;5156083;27;20473;-87
2021/11/03 04:20:39;;;;;;;110.57;29.57;;;;;;;6.62;100.00;94781.28;5155815;27;20517;-87
2021/11/03 04:23:06;;;;;;;43.53;23.50;;;;;;;6.54;100.00;94786.22;5155905;27;20940;-87
2021/11/03 04:25:33;;;;;;;34.83;22.40;;;;;;;6.60;100.00;94803.19;5156042;27;20835;-87
2021/11/03 04:28:02;;;;;;;41.17;23.13;;;;;;;6.65;100.00;94804.56;5155824;27;20473;-87
2021/11/03 04:30:30;;;;;;;41.13;21.57;;;;;;;6.72;100.00;94790.13;5156033;27;20446;-87
2021/11/03 04:32:58;;;;;;;99.57;27.23;;;;;;;6.72;100.00;94792.75;5155763;27;20855;-86
2021/11/03 04:35:25;;;;;;;45.13;24.33;;;;;;;6.80;100.00;94794.78;5155547;27;20446;-87
2021/11/03 04:37:54;;;;;;;30.53;22.30;;;;;;;6.88;100.00;94800.28;5155679;27;20473;-86
2021/11/03 04:40:23;;;;;;;31.97;22.40;;;;;;;6.99;100.00;94796.94;5155309;27;20492;-86
2021/11/03 04:42:50;;;;;;;45.47;25.57;;;;;;;7.00;100.00;94802.03;5154998;27;20863;-87
2021/11/03 04:45:19;;;;;;;53.87;25.17;;;;;;;7.09;100.00;94806.56;5155527;27;20478;-87
2021/11/03 04:47:46;;;;;;;45.07;20.43;;;;;;;7.08;100.00;94794.47;5155494;27;20568;-87
2021/11/03 04:50:18;;;;;;;51.40;22.70;;;;;;;7.13;100.00;94794.13;5155668;27;20799;-87
2021/11/03 04:52:45;;;;;;;57.13;22.37;;;;;;;7.17;100.00;94802.56;5156006;27;20450;-87
2021/11/03 04:55:13;;;;;;;34.57;22.33;;;;;;;7.12;100.00;94806.34;5119556;27;20438;-87
2021/11/03 04:57:40;;;;;;;44.27;22.00;;;;;;;7.13;100.00;94808.00;5155959;27;20438;-86
2021/11/03 05:00:12;;;;;;;53.33;24.87;;;;;;;7.10;100.00;94803.03;5155500;27;20516;-87
2021/11/03 05:02:39;;;;;;;62.27;25.00;;;;;;;7.12;100.00;94808.13;5155814;27;20440;-87
2021/11/03 05:05:07;;;;;;;61.30;25.23;;;;;;;7.18;100.00;94807.69;5155865;27;20469;-87
2021/11/03 05:07:34;;;;;;;45.10;24.40;;;;;;;7.18;100.00;94812.91;5152800;27;20485;-87
2021/11/03 05:10:01;;;;;;;62.00;26.50;;;;;;;7.14;100.00;94821.91;5155373;27;20536;-87
2021/11/03 05:12:30;;;;;;;39.23;21.47;;;;;;;7.18;100.00;94835.53;5157286;27;20792;-87
2021/11/03 05:14:57;;;;;;;22.57;15.73;;;;;;;7.10;100.00;94820.47;5159319;27;20441;-87
2021/11/03 05:17:24;;;;;;;45.57;20.10;;;;;;;7.09;100.00;94818.78;5159189;27;20498;-87
2021/11/03 05:19:51;;;;;;;47.77;23.43;;;;;;;7.12;100.00;94822.00;5159046;27;20433;-87
2021/11/03 05:22:22;;;;;;;37.07;23.60;;;;;;;7.15;100.00;94829.59;5159337;27;20426;-87
2021/11/03 05:24:49;;;;;;;33.57;20.23;;;;;;;7.22;100.00;94827.38;5159122;27;20449;-87
2021/11/03 05:27:16;;;;;;;56.17;21.20;;;;;;;7.23;100.00;94839.50;5158936;27;20997;-87
2021/11/03 05:29:45;;;;;;;44.40;19.20;;;;;;;7.22;100.00;94837.81;5158932;27;20445;-87
2021/11/03 05:32:12;;;;;;;52.20;19.90;;;;;;;7.24;100.00;94835.97;5159102;27;20450;-87
2021/11/03 05:34:39;;;;;;;65.30;20.60;;;;;;;7.21;100.00;94837.94;5159045;27;20446;-87
2021/11/03 05:37:06;;;;;;;30.90;18.77;;;;;;;7.24;100.00;94837.75;5158785;27;20979;-87
2021/11/03 05:39:33;;;;;;;61.80;32.47;;;;;;;7.17;100.00;94839.94;5159362;27;20932;-88
2021/11/03 05:42:00;;;;;;;74.60;25.33;;;;;;;7.05;100.00;94849.50;5158436;27;20599;-87
2021/11/03 05:44:27;;;;;;;74.30;22.00;;;;;;;6.90;100.00;94854.94;5158872;27;20452;-87
2021/11/03 05:46:59;;;;;;;48.20;19.53;;;;;;;6.92;100.00;94859.13;5158523;27;20556;-87
2021/11/03 05:49:29;;;;;;;38.50;20.50;;;;;;;6.97;100.00;94864.03;5159192;27;20453;-87
2021/11/03 05:51:57;;;;;;;46.27;22.17;;;;;;;6.95;100.00;94869.34;5158788;27;20488;-87
2021/11/03 05:54:26;;;;;;;57.30;28.47;;;;;;;6.55;100.00;94878.28;5158816;27;20446;-87
2021/11/03 05:56:55;;;;;;;68.37;33.47;;;;;;;6.46;100.00;94882.38;5158792;27;20473;-87
2021/11/03 05:59:22;;;;;;;48.80;28.27;;;;;;;6.41;100.00;94879.25;5159583;27;20454;-87
2021/11/03 06:01:49;;;;;;;31.90;19.57;;;;;;;6.59;100.00;94890.16;5158776;27;20422;-87
2021/11/03 06:04:18;;;;;;;36.70;20.80;;;;;;;6.64;100.00;94888.91;5158755;27;20947;-87
2021/11/03 06:06:45;;;;;;;45.03;21.80;;;;;;;6.78;100.00;94878.34;5159311;27;20470;-85
2021/11/03 06:09:12;;;;;;;35.67;21.00;;;;;;;6.82;100.00;94876.38;5157448;27;20465;-82
2021/11/03 06:21:46;;;;;;;47.77;19.13;;;;;;;7.08;100.00;94879.75;5157362;27;20385;-80
2021/11/03 06:24:13;;;;;;;56.03;19.30;;;;;;;7.14;100.00;94880.13;5156414;27;20440;-83
2021/11/03 06:26:40;;;;;;;32.47;21.03;;;;;;;7.18;100.00;94879.91;5157390;27;20568;-87
2021/11/03 06:29:07;;;;;;;39.63;20.87;;;;;;;7.30;100.00;94900.75;5157667;27;20505;-85
2021/11/03 06:31:34;;;;;;;53.37;26.60;;;;;;;7.32;100.00;94911.91;5157926;27;20457;-84
2021/11/03 06:34:02;;;;;;;77.80;21.77;;;;;;;7.41;100.00;94913.84;5157927;27;20513;-85
2021/11/03 06:36:30;;;;;;;79.47;22.98;;;;;;;7.38;100.00;94908.03;5157062;27;20810;-85
2021/11/03 06:38:58;;;;;;;104.87;22.47;;;;;;;7.35;100.00;94905.63;5157798;27;20181;-86
2021/11/03 06:41:27;;;;;;;80.47;19.70;;;;;;;7.30;100.00;94905.97;5157531;27;20577;-85
2021/11/03 06:43:54;;;;;;;101.33;22.33;;;;;;;7.18;100.00;94912.06;5157487;27;20995;-85
2021/11/03 06:46:21;;;;;;;61.23;20.57;;;;;;;7.06;100.00;94915.53;5157539;27;20861;-85
2021/11/03 06:48:48;;;;;;;44.83;17.80;;;;;;;7.08;100.00;94921.50;5157141;27;20497;-85
2021/11/03 06:51:15;;;;;;;43.60;19.60;;;;;;;6.97;100.00;94911.00;5157278;27;20513;-85
2021/11/03 06:53:42;;;;;;;105.53;24.00;;;;;;;6.91;100.00;94903.56;5157440;27;20434;-85
2021/11/03 06:56:11;;;;;;;47.80;21.57;;;;;;;6.90;100.00;94917.56;5158608;27;20545;-84
2021/11/03 06:58:39;;;;;;;46.40;21.50;;;;;;;6.92;100.00;94923.50;5157565;27;20545;-85
2021/11/03 07:01:07;;;;;;;38.77;23.43;;;;;;;6.99;100.00;94935.19;5156899;27;20524;-84
2021/11/03 07:03:35;;;;;;;66.87;20.63;;;;;;;7.11;100.00;94939.53;5157707;27;20477;-84
2021/11/03 07:06:02;;;;;;;37.47;22.47;;;;;;;7.20;100.00;94938.03;5104486;27;20441;-85
2021/11/03 07:08:30;;;;;;;37.80;23.87;;;;;;;7.28;100.00;94936.56;5156839;27;20476;-84
2021/11/03 07:11:00;;;;;;;52.67;23.23;;;;;;;7.15;100.00;94933.16;5156505;27;20430;-85
2021/11/03 07:13:30;;;;;;;33.70;18.27;;;;;;;7.30;100.00;94936.47;5156434;27;20568;-84
2021/11/03 07:15:57;;;;;;;39.77;22.13;;;;;;;7.39;100.00;94935.81;5120890;27;20552;-84
2021/11/03 07:18:25;;;;;;;31.77;19.43;;;;;;;7.47;100.00;94933.47;5156598;27;20433;-84
2021/11/03 07:20:52;;;;;;;35.67;21.03;;;;;;;7.58;100.00;94936.16;5156546;27;20513;-84
2021/11/03 07:26:41;;;;;;;36.93;22.40;;;;;;;7.65;100.00;94949.59;5154923;27;20439;-84
2021/11/03 07:29:10;;;;;;;64.63;22.30;;;;;;;7.70;100.00;94952.69;5155308;27;20456;-85
2021/11/03 07:31:37;;;;;;;43.83;24.20;;;;;;;7.82;100.00;94948.38;5155340;27;20466;-85
2021/11/03 07:34:05;;;;;;;42.57;22.10;;;;;;;7.94;100.00;94958.75;5155348;27;20454;-82
2021/11/03 07:36:33;;;;;;;55.23;28.07;;;;;;;7.97;100.00;94968.16;5154917;27;21008;-84
2021/11/03 07:39:00;;;;;;;53.33;29.00;;;;;;;7.98;100.00;94970.63;5155220;27;20441;-84
2021/11/03 07:41:27;;;;;;;60.30;33.83;;;;;;;7.96;100.00;94959.47;5155223;27;20562;-84
2021/11/03 07:43:54;;;;;;;55.57;31.63;;;;;;;7.99;100.00;94959.25;5155197;27;20514;-84
2021/11/03 07:46:23;;;;;;;59.80;31.10;;;;;;;8.10;100.00;94963.69;5155564;27;20437;-85
2021/11/03 07:48:50;;;;;;;64.23;30.33;;;;;;;8.08;100.00;94966.41;5155010;27;20596;-84
2021/11/03 07:51:20;;;;;;;62.60;27.57;;;;;;;8.00;100.00;94965.31;5155007;27;20441;-84
2021/11/03 07:53:48;;;;;;;48.10;25.70;;;;;;;8.07;100.00;94971.75;5154926;27;20958;-85
2021/11/03 07:56:21;;;;;;;45.13;24.13;;;;;;;8.12;100.00;94976.66;5102402;27;20504;-85
2021/11/03 07:58:49;;;;;;;46.07;25.03;;;;;;;8.22;100.00;94969.78;5155138;27;20438;-85
2021/11/03 08:01:17;;;;;;;48.83;23.03;;;;;;;8.30;100.00;94972.66;5154979;27;20520;-85
2021/11/03 08:03:46;;;;;;;49.93;24.53;;;;;;;8.34;100.00;94982.78;5155335;27;20433;-85
2021/11/03 08:06:14;;;;;;;48.20;28.30;;;;;;;8.44;100.00;94969.06;5161540;27;20445;-85
2021/11/03 08:08:46;;;;;;;46.53;25.60;;;;;;;8.53;100.00;94958.72;5158647;27;20477;-84
2021/11/03 08:11:14;;;;;;;45.60;28.47;;;;;;;8.60;100.00;94961.69;5154381;27;20498;-83
2021/11/03 08:13:43;;;;;;;49.77;26.57;;;;;;;8.68;100.00;94964.59;5154818;27;20460;-84
2021/11/03 08:16:11;;;;;;;71.00;27.70;;;;;;;8.73;100.00;94954.59;5155096;27;20492;-83
2021/11/03 08:18:41;;;;;;;73.40;30.53;;;;;;;8.71;100.00;94953.88;5154537;27;20950;-84
2021/11/03 08:21:11;;;;;;;66.73;28.90;;;;;;;8.68;100.00;94944.50;5155124;27;20536;-83
2021/11/03 08:23:38;;;;;;;56.77;26.80;;;;;;;8.65;100.00;94949.94;5154457;27;20520;-84
2021/11/03 08:26:06;;;;;;;59.27;28.30;;;;;;;8.66;100.00;94951.59;5154710;27;21003;-83
2021/11/03 08:28:34;;;;;;;71.13;28.17;;;;;;;8.68;100.00;94947.13;5154505;27;20481;-83
2021/11/03 08:31:02;;;;;;;68.97;28.67;;;;;;;8.42;100.00;94935.19;5154876;27;20456;-84
2021/11/03 08:33:34;;;;;;;64.17;32.30;;;;;;;8.41;100.00;94946.59;5155014;27;20548;-84
2021/11/03 08:36:02;;;;;;;100.23;33.40;;;;;;;8.37;100.00;94937.28;5154766;27;20438;-84
2021/11/03 08:38:30;;;;;;;76.77;34.23;;;;;;;8.44;100.00;94930.66;5154945;27;20462;-83
2021/11/03 08:40:57;;;;;;;64.43;29.53;;;;;;;8.54;100.00;94936.84;5154544;27;20470;-83
2021/11/03 08:43:31;;;;;;;64.63;28.20;;;;;;;8.51;100.00;94952.78;5154800;27;20441;-83
2021/11/03 08:46:01;;;;;;;73.63;32.57;;;;;;;8.49;100.00;94952.06;5111167;27;20469;-85
2021/11/03 08:48:29;;;;;;;63.80;31.70;;;;;;;8.49;100.00;94949.44;5157805;27;20888;-84
2021/11/03 08:50:57;;;;;;;63.77;34.33;;;;;;;8.51;100.00;94946.72;5158659;27;20516;-84
2021/11/03 08:53:24;;;;;;;58.07;32.33;;;;;;;8.58;100.00;94946.13;5158774;27;20438;-84
2021/11/03 08:55:54;;;;;;;60.40;33.60;;;;;;;8.73;100.00;94940.69;5158666;27;20524;-84
2021/11/03 08:58:23;;;;;;;61.77;31.10;;;;;;;8.70;100.00;94947.00;5158949;27;20448;-84
2021/11/03 09:00:52;;;;;;;70.03;32.90;;;;;;;8.87;100.00;94945.69;5158330;27;20437;-84
2021/11/03 09:03:20;;;;;;;64.87;33.77;;;;;;;8.86;100.00;94936.16;5158573;27;20494;-84
2021/11/03 09:05:48;;;;;;;62.50;34.23;;;;;;;8.86;100.00;94941.41;5158201;27;20450;-84
2021/11/03 09:08:17;;;;;;;67.30;33.57;;;;;;;8.98;100.00;94946.53;5157863;27;20580;-84
2021/11/03 09:10:47;;;;;;;64.33;34.43;;;;;;;9.07;100.00;94944.97;5158507;27;20544;-85
2021/11/03 09:13:18;;;;;;;59.57;36.40;;;;;;;9.17;100.00;94951.16;5158555;27;20434;-84
2021/11/03 09:15:45;;;;;;;74.77;41.27;;;;;;;9.34;100.00;94949.00;5158565;27;20887;-84
2021/11/03 09:18:16;;;;;;;69.40;36.97;;;;;;;9.49;100.00;94945.97;5159017;27;20430;-84
2021/11/03 09:20:45;;;;;;;74.77;37.67;;;;;;;9.65;100.00;94945.59;5158704;27;20502;-85
2021/11/03 09:23:13;;;;;;;63.90;35.73;;;;;;;9.71;100.00;94937.25;5158067;27;20441;-84
2021/11/03 09:25:40;;;;;;;69.07;36.37;;;;;;;9.66;100.00;94926.31;5157800;27;20525;-84
2021/11/03 09:28:07;;;;;;;76.17;37.30;;;;;;;9.76;100.00;94927.22;5158178;27;20564;-84
2021/11/03 09:30:37;;;;;;;72.70;36.00;;;;;;;9.85;100.00;94936.16;5158050;27;20444;-84
2021/11/03 09:33:07;;;;;;;75.63;36.27;;;;;;;9.99;100.00;94927.16;5157973;27;20433;-84
2021/11/03 09:35:47;;;;;;;66.90;39.83;;;;;;;10.07;100.00;94937.81;5157648;27;20441;-84
2021/11/03 09:38:17;;;;;;;80.37;40.40;;;;;;;10.11;100.00;94932.19;5157842;27;20447;-85
2021/11/03 09:40:50;;;;;;;78.60;41.10;;;;;;;10.15;100.00;94932.81;5157768;27;20497;-84
2021/11/03 09:43:31;;;;;;;82.00;42.60;;;;;;;10.12;100.00;94914.69;5158102;27;20476;-84
2021/11/03 09:46:02;;;;;;;77.00;42.57;;;;;;;10.11;100.00;94915.63;5157681;27;20484;-84
2021/11/03 09:48:32;;;;;;;90.43;42.87;;;;;;;10.08;100.00;94921.13;5157827;27;20576;-84
2021/11/03 09:51:06;;;;;;;85.60;44.70;;;;;;;10.08;100.00;94905.41;5157577;27;20488;-84
2021/11/03 09:53:39;;;;;;;79.37;44.97;;;;;;;9.96;100.00;94903.81;5104310;27;20481;-84
2021/11/03 09:56:13;;;;;;;86.33;46.13;;;;;;;10.03;100.00;94902.34;5157737;27;20545;-84
2021/11/03 09:59:01;;;;;;;87.33;45.67;;;;;;;9.92;100.00;94900.59;5157942;27;20804;-84
2021/11/03 10:01:42;;;;;;;90.10;45.80;;;;;;;10.01;100.00;94891.16;5156986;27;20445;-84
2021/11/03 10:04:22;;;;;;;80.10;45.87;;;;;;;10.14;100.00;94887.41;5157327;27;20446;-84
2021/11/03 10:06:59;;;;;;;85.27;48.00;;;;;;;10.21;100.00;94874.63;5157657;27;20528;-84
2021/11/03 10:09:26;;;;;;;95.27;51.37;;;;;;;10.43;100.00;94869.25;5157437;27;20564;-84
2021/11/03 10:11:54;;;;;;;87.87;47.00;;;;;;;10.50;100.00;94870.41;5157360;27;20450;-84
2021/11/03 10:14:22;;;;;;;90.77;46.30;;;;;;;10.48;100.00;94856.56;5157941;27;20469;-84
2021/11/03 10:16:54;;;;;;;88.70;45.33;;;;;;;10.54;100.00;94861.28;5157778;27;20954;-84
2021/11/03 10:19:34;;;;;;;80.03;43.60;;;;;;;10.64;100.00;94858.72;5157438;27;20863;-84
2021/11/03 10:22:19;;;;;;;91.27;46.30;;;;;;;10.67;100.00;94866.31;5103153;27;20972;-84
2021/11/03 10:25:03;;;;;;;69.87;39.90;;;;;;;10.38;100.00;94875.81;5156881;27;20445;-84
2021/11/03 10:27:30;;;;;;;81.03;37.80;;;;;;;10.50;100.00;94865.16;5156951;27;20516;-84
2021/11/03 10:30:22;;;;;;;69.03;39.83;;;;;;;10.55;100.00;94862.13;5156859;27;20564;-84
2021/11/03 10:32:52;;;;;;;95.83;41.27;;;;;;;10.68;100.00;94852.22;5156962;27;20517;-84
2021/11/03 10:35:24;;;;;;;68.47;37.93;;;;;;;10.54;100.00;94855.22;5156687;27;20441;-84
2021/11/03 10:38:00;;;;;;;73.53;41.10;;;;;;;10.57;100.00;94851.50;5157342;27;20465;-84
2021/11/03 10:40:47;;;;;;;77.57;41.60;;;;;;;10.83;100.00;94852.72;5157542;27;21015;-84
2021/11/03 10:43:29;;;;;;;77.80;42.17;;;;;;;11.06;100.00;94856.81;5157127;27;20502;-84
2021/11/03 10:46:00;;;;;;;73.37;40.07;;;;;;;11.11;100.00;94845.91;5157514;27;20455;-84
2021/11/03 10:48:29;;;;;;;82.20;44.00;;;;;;;11.06;100.00;94830.56;5156491;27;20989;-84
2021/11/03 10:51:15;;;;;;;76.87;42.17;;;;;;;11.20;100.00;94850.34;5156112;27;20532;-84
2021/11/03 10:53:52;;;;;;;80.80;42.60;;;;;;;11.32;100.00;94845.81;5156262;27;20453;-84
2021/11/03 10:56:30;;;;;;;70.13;41.17;;;;;;;11.34;100.00;94843.88;5156309;27;20454;-85
2021/11/03 10:59:02;;;;;;;70.50;40.70;;;;;;;11.38;100.00;94840.00;5156392;27;20534;-84
2021/11/03 11:01:33;;;;;;;65.57;39.80;;;;;;;11.34;100.00;94839.47;5156744;27;20512;-84
2021/11/03 11:04:06;;;;;;;77.50;42.97;;;;;;;11.42;100.00;94830.88;5156662;27;20448;-84
2021/11/03 11:06:38;;;;;;;76.33;41.90;;;;;;;11.43;100.00;94838.63;5156218;27;20599;-84
2021/11/03 11:09:22;;;;;;;83.60;43.53;;;;;;;11.59;100.00;94853.88;5155759;27;20572;-85
2021/11/03 11:11:54;;;;;;;84.30;43.87;;;;;;;11.61;100.00;94851.94;5155981;27;20460;-84
2021/11/03 11:14:24;;;;;;;102.53;47.87;;;;;;;11.74;100.00;94859.53;5156212;27;20498;-84
2021/11/03 11:16:56;;;;;;;90.00;44.20;;;;;;;11.68;100.00;94842.53;5156464;27;20460;-84
2021/11/03 11:19:35;;;;;;;75.37;44.43;;;;;;;11.74;100.00;94849.03;5156318;27;20454;-85
2021/11/03 11:22:13;;;;;;;79.40;44.17;;;;;;;11.90;100.00;94861.66;5155907;27;20433;-85
2021/11/03 11:24:46;;;;;;;89.33;45.77;;;;;;;11.74;100.00;94846.41;5156129;27;20461;-84
2021/11/03 11:27:22;;;;;;;95.53;46.73;;;;;;;11.77;100.00;94828.53;5155488;27;20450;-84
2021/11/03 11:29:57;;;;;;;93.30;49.70;;;;;;;11.98;100.00;94819.72;5155797;27;20477;-84
2021/11/03 11:32:42;;;;;;;84.07;46.47;;;;;;;12.09;100.00;94827.44;5155822;27;20540;-84
2021/11/03 11:35:21;;;;;;;87.50;47.87;;;;;;;12.13;100.00;94820.09;5162153;27;20468;-84
2021/11/03 11:38:03;;;;;;;86.27;47.50;;;;;;;12.17;100.00;94822.34;5169895;27;20441;-84